sensor_id;sensor_type;location;lat;lon;timestamp;temperature;humidity
20833;DHT22;56075;51.264;7.150;2022-09-23T02:08:21;13.20;99.90
20833;DHT22;56075;51.264;7.150;2022-09-23T02:11:01;13.20;99.90
20833;DHT22;56075;51.264;7.150;2022-09-23T02:21:42;13.10;99.90
20833;DHT22;56075;51.264;7.150;2022-09-23T02:40:29;13.10;99.90
20833;DHT22;56075;51.264;7.150;2022-09-23T02:43:12;13.10;99.90
20833;DHT22;56075;51.264;7.150;2022-09-23T02:58:27;12.80;99.90
20833;DHT22;56075;51.264;7.150;2022-09-23T09:09:26;17.20;99.90
20833;DHT22;56075;51.264;7.150;2022-09-23T09:28:31;17.70;99.90
20833;DHT22;56075;51.264;7.150;2022-09-23T09:47:18;17.70;99.90
20833;DHT22;56075;51.264;7.150;2022-09-23T10:14:05;18.10;99.90
20833;DHT22;56075;51.264;7.150;2022-09-23T11:53:44;19.90;99.90
20833;DHT22;56075;51.264;7.150;2022-09-23T12:41:39;21.50;99.90
20833;DHT22;56075;51.264;7.150;2022-09-23T12:46:44;20.60;99.90
20833;DHT22;56075;51.264;7.150;2022-09-23T12:52:12;19.60;99.90
20833;DHT22;56075;51.264;7.150;2022-09-23T12:54:48;19.40;99.90
20833;DHT22;56075;51.264;7.150;2022-09-23T13:03:02;19.10;99.90
20833;DHT22;56075;51.264;7.150;2022-09-23T13:05:59;19.10;99.90
20833;DHT22;56075;51.264;7.150;2022-09-23T13:08:51;20.30;99.90
20833;DHT22;56075;51.264;7.150;2022-09-23T13:11:30;19.30;99.90
20833;DHT22;56075;51.264;7.150;2022-09-23T13:14:03;19.00;99.90
20833;DHT22;56075;51.264;7.150;2022-09-23T13:16:42;18.90;99.90
20833;DHT22;56075;51.264;7.150;2022-09-23T13:22:10;18.70;99.90
20833;DHT22;56075;51.264;7.150;2022-09-23T13:25:00;18.60;99.90
20833;DHT22;56075;51.264;7.150;2022-09-23T13:27:33;18.60;99.90
20833;DHT22;56075;51.264;7.150;2022-09-23T13:30:17;18.60;99.90
20833;DHT22;56075;51.264;7.150;2022-09-23T13:32:58;18.50;99.90
20833;DHT22;56075;51.264;7.150;2022-09-23T13:35:39;18.40;99.90
20833;DHT22;56075;51.264;7.150;2022-09-23T13:38:21;18.40;99.90
20833;DHT22;56075;51.264;7.150;2022-09-23T13:41:02;18.40;99.90
20833;DHT22;56075;51.264;7.150;2022-09-23T13:43:36;18.40;99.90
20833;DHT22;56075;51.264;7.150;2022-09-23T13:46:12;20.10;99.90
20833;DHT22;56075;51.264;7.150;2022-09-23T13:48:49;18.40;99.90
20833;DHT22;56075;51.264;7.150;2022-09-23T13:51:32;20.70;99.90
20833;DHT22;56075;51.264;7.150;2022-09-23T13:54:04;18.30;99.90
20833;DHT22;56075;51.264;7.150;2022-09-23T13:56:35;18.30;99.90
20833;DHT22;56075;51.264;7.150;2022-09-23T13:59:39;18.10;99.90
20833;DHT22;56075;51.264;7.150;2022-09-23T14:02:13;18.40;99.90
20833;DHT22;56075;51.264;7.150;2022-09-23T14:04:45;18.40;99.90
20833;DHT22;56075;51.264;7.150;2022-09-23T14:07:17;18.20;99.90
20833;DHT22;56075;51.264;7.150;2022-09-23T14:12:21;17.90;99.90
20833;DHT22;56075;51.264;7.150;2022-09-23T14:14:52;18.20;99.90
20833;DHT22;56075;51.264;7.150;2022-09-23T14:17:24;18.20;99.90
20833;DHT22;56075;51.264;7.150;2022-09-23T14:19:55;18.30;99.90
20833;DHT22;56075;51.264;7.150;2022-09-23T14:22:28;18.00;99.90
20833;DHT22;56075;51.264;7.150;2022-09-23T14:24:59;19.70;99.90
20833;DHT22;56075;51.264;7.150;2022-09-23T14:27:33;18.30;99.90
20833;DHT22;56075;51.264;7.150;2022-09-23T14:30:13;19.50;99.90
20833;DHT22;56075;51.264;7.150;2022-09-23T14:32:45;18.00;99.90
20833;DHT22;56075;51.264;7.150;2022-09-23T14:35:39;19.80;99.90
20833;DHT22;56075;51.264;7.150;2022-09-23T14:38:24;18.00;99.90
20833;DHT22;56075;51.264;7.150;2022-09-23T14:41:24;18.20;99.90
20833;DHT22;56075;51.264;7.150;2022-09-23T14:44:00;18.00;99.90
20833;DHT22;56075;51.264;7.150;2022-09-23T14:46:35;18.00;99.90
20833;DHT22;56075;51.264;7.150;2022-09-23T14:52:00;17.90;99.90
20833;DHT22;56075;51.264;7.150;2022-09-23T14:54:44;18.00;99.90
20833;DHT22;56075;51.264;7.150;2022-09-23T14:59:58;17.80;99.90
20833;DHT22;56075;51.264;7.150;2022-09-23T15:02:38;17.80;99.90
20833;DHT22;56075;51.264;7.150;2022-09-23T15:05:18;17.90;99.90
20833;DHT22;56075;51.264;7.150;2022-09-23T15:07:51;17.90;99.90
20833;DHT22;56075;51.264;7.150;2022-09-23T15:10:31;18.40;99.90
20833;DHT22;56075;51.264;7.150;2022-09-23T15:13:07;19.60;99.90
20833;DHT22;56075;51.264;7.150;2022-09-23T15:15:40;17.80;99.90
20833;DHT22;56075;51.264;7.150;2022-09-23T15:18:26;18.90;99.90
20833;DHT22;56075;51.264;7.150;2022-09-23T15:21:12;18.00;99.90
20833;DHT22;56075;51.264;7.150;2022-09-23T15:23:51;19.20;99.90
20833;DHT22;56075;51.264;7.150;2022-09-23T15:29:13;17.70;99.90
20833;DHT22;56075;51.264;7.150;2022-09-23T15:31:45;19.60;99.90
20833;DHT22;56075;51.264;7.150;2022-09-23T15:34:16;17.80;99.90
20833;DHT22;56075;51.264;7.150;2022-09-23T15:36:50;18.80;99.90
20833;DHT22;56075;51.264;7.150;2022-09-23T15:39:21;17.70;99.90
20833;DHT22;56075;51.264;7.150;2022-09-23T15:41:53;17.70;99.90
20833;DHT22;56075;51.264;7.150;2022-09-23T15:44:24;17.50;99.90
20833;DHT22;56075;51.264;7.150;2022-09-23T15:46:59;17.50;99.90
20833;DHT22;56075;51.264;7.150;2022-09-23T15:49:34;17.70;99.90
20833;DHT22;56075;51.264;7.150;2022-09-23T15:52:12;17.80;99.90
20833;DHT22;56075;51.264;7.150;2022-09-23T15:54:46;17.50;99.90
20833;DHT22;56075;51.264;7.150;2022-09-23T15:57:17;17.60;99.90
20833;DHT22;56075;51.264;7.150;2022-09-23T15:59:49;17.80;99.90
20833;DHT22;56075;51.264;7.150;2022-09-23T16:02:22;17.40;99.90
20833;DHT22;56075;51.264;7.150;2022-09-23T16:04:54;17.20;99.90
20833;DHT22;56075;51.264;7.150;2022-09-23T16:07:28;17.20;99.90
20833;DHT22;56075;51.264;7.150;2022-09-23T16:10:00;17.20;99.90
20833;DHT22;56075;51.264;7.150;2022-09-23T16:12:35;17.70;99.90
20833;DHT22;56075;51.264;7.150;2022-09-23T16:15:12;17.10;99.90
20833;DHT22;56075;51.264;7.150;2022-09-23T16:17:45;17.50;99.90
20833;DHT22;56075;51.264;7.150;2022-09-23T16:20:16;17.20;99.90
20833;DHT22;56075;51.264;7.150;2022-09-23T16:25:29;16.80;99.90
20833;DHT22;56075;51.264;7.150;2022-09-23T16:28:04;17.10;99.90
20833;DHT22;56075;51.264;7.150;2022-09-23T16:30:35;17.10;99.90
20833;DHT22;56075;51.264;7.150;2022-09-23T16:33:07;17.00;99.90
20833;DHT22;56075;51.264;7.150;2022-09-23T16:35:38;17.00;99.90
20833;DHT22;56075;51.264;7.150;2022-09-23T16:38:09;16.90;99.90
20833;DHT22;56075;51.264;7.150;2022-09-23T16:40:41;16.90;99.90
20833;DHT22;56075;51.264;7.150;2022-09-23T16:43:12;17.00;99.90
20833;DHT22;56075;51.264;7.150;2022-09-23T16:45:43;17.00;99.90
20833;DHT22;56075;51.264;7.150;2022-09-23T16:48:15;16.90;99.90
20833;DHT22;56075;51.264;7.150;2022-09-23T16:50:50;16.80;99.90
20833;DHT22;56075;51.264;7.150;2022-09-23T16:53:28;17.00;99.90
20833;DHT22;56075;51.264;7.150;2022-09-23T16:56:04;16.90;99.90
20833;DHT22;56075;51.264;7.150;2022-09-23T16:58:39;16.90;99.90
20833;DHT22;56075;51.264;7.150;2022-09-23T17:01:25;16.80;99.90
20833;DHT22;56075;51.264;7.150;2022-09-23T17:04:16;16.70;99.90
20833;DHT22;56075;51.264;7.150;2022-09-23T17:06:49;17.50;99.90
20833;DHT22;56075;51.264;7.150;2022-09-23T17:09:23;16.70;99.90
20833;DHT22;56075;51.264;7.150;2022-09-23T17:12:17;16.70;99.90
20833;DHT22;56075;51.264;7.150;2022-09-23T17:14:50;16.60;99.90
20833;DHT22;56075;51.264;7.150;2022-09-23T17:17:22;17.50;99.90
20833;DHT22;56075;51.264;7.150;2022-09-23T17:19:53;16.70;99.90
20833;DHT22;56075;51.264;7.150;2022-09-23T17:22:24;16.60;99.90
20833;DHT22;56075;51.264;7.150;2022-09-23T17:25:00;16.70;99.90
20833;DHT22;56075;51.264;7.150;2022-09-23T17:27:34;16.50;99.90
20833;DHT22;56075;51.264;7.150;2022-09-23T17:30:05;18.20;99.90
20833;DHT22;56075;51.264;7.150;2022-09-23T17:32:37;16.40;99.90
20833;DHT22;56075;51.264;7.150;2022-09-23T17:35:08;16.30;99.90
20833;DHT22;56075;51.264;7.150;2022-09-23T17:37:40;16.30;99.90
20833;DHT22;56075;51.264;7.150;2022-09-23T17:40:11;16.40;99.90
20833;DHT22;56075;51.264;7.150;2022-09-23T17:42:42;16.50;99.90
20833;DHT22;56075;51.264;7.150;2022-09-23T17:45:14;17.40;99.90
20833;DHT22;56075;51.264;7.150;2022-09-23T17:47:45;16.50;99.90
20833;DHT22;56075;51.264;7.150;2022-09-23T17:50:21;16.40;99.90
20833;DHT22;56075;51.264;7.150;2022-09-23T17:52:52;16.40;99.90
20833;DHT22;56075;51.264;7.150;2022-09-23T17:55:23;17.40;99.90
20833;DHT22;56075;51.264;7.150;2022-09-23T17:57:54;16.20;99.90
20833;DHT22;56075;51.264;7.150;2022-09-23T18:00:26;16.20;99.90
20833;DHT22;56075;51.264;7.150;2022-09-23T18:02:57;17.20;99.90
20833;DHT22;56075;51.264;7.150;2022-09-23T18:05:28;16.20;99.90
20833;DHT22;56075;51.264;7.150;2022-09-23T18:08:00;16.20;99.90
20833;DHT22;56075;51.264;7.150;2022-09-23T18:10:33;16.10;99.90
20833;DHT22;56075;51.264;7.150;2022-09-23T18:13:04;16.00;99.90
20833;DHT22;56075;51.264;7.150;2022-09-23T18:15:36;18.20;99.90
20833;DHT22;56075;51.264;7.150;2022-09-23T18:18:07;16.10;99.90
20833;DHT22;56075;51.264;7.150;2022-09-23T18:20:38;17.10;99.90
20833;DHT22;56075;51.264;7.150;2022-09-23T18:23:09;15.90;99.90
20833;DHT22;56075;51.264;7.150;2022-09-23T18:25:41;16.70;99.90
20833;DHT22;56075;51.264;7.150;2022-09-23T18:28:12;15.90;99.90
20833;DHT22;56075;51.264;7.150;2022-09-23T18:30:56;17.60;99.90
20833;DHT22;56075;51.264;7.150;2022-09-23T18:33:28;15.90;99.90
20833;DHT22;56075;51.264;7.150;2022-09-23T18:35:59;15.80;99.90
20833;DHT22;56075;51.264;7.150;2022-09-23T18:38:31;15.80;99.90
20833;DHT22;56075;51.264;7.150;2022-09-23T18:41:02;16.50;99.90
20833;DHT22;56075;51.264;7.150;2022-09-23T18:43:33;15.70;99.90
20833;DHT22;56075;51.264;7.150;2022-09-23T18:46:13;17.90;99.90
20833;DHT22;56075;51.264;7.150;2022-09-23T18:48:44;15.60;99.90
20833;DHT22;56075;51.264;7.150;2022-09-23T18:51:36;15.60;99.90
20833;DHT22;56075;51.264;7.150;2022-09-23T18:54:08;15.60;99.90
20833;DHT22;56075;51.264;7.150;2022-09-23T18:56:41;15.60;99.90
20833;DHT22;56075;51.264;7.150;2022-09-23T18:59:14;15.40;99.90
20833;DHT22;56075;51.264;7.150;2022-09-23T19:01:50;15.70;99.90
20833;DHT22;56075;51.264;7.150;2022-09-23T19:04:25;15.60;99.90
20833;DHT22;56075;51.264;7.150;2022-09-23T19:06:57;15.60;99.90
20833;DHT22;56075;51.264;7.150;2022-09-23T19:09:28;15.60;99.90
20833;DHT22;56075;51.264;7.150;2022-09-23T19:12:00;16.50;99.90
20833;DHT22;56075;51.264;7.150;2022-09-23T19:14:33;15.50;99.90
20833;DHT22;56075;51.264;7.150;2022-09-23T19:17:04;15.30;99.90
20833;DHT22;56075;51.264;7.150;2022-09-23T19:19:36;15.30;99.90
20833;DHT22;56075;51.264;7.150;2022-09-23T19:22:07;15.10;99.90
20833;DHT22;56075;51.264;7.150;2022-09-23T19:24:38;13.20;99.90
20833;DHT22;56075;51.264;7.150;2022-09-23T19:27:10;15.40;99.90
20833;DHT22;56075;51.264;7.150;2022-09-23T19:29:41;16.90;99.90
20833;DHT22;56075;51.264;7.150;2022-09-23T19:32:12;15.20;99.90
20833;DHT22;56075;51.264;7.150;2022-09-23T19:34:48;15.30;99.90
20833;DHT22;56075;51.264;7.150;2022-09-23T19:37:19;15.30;99.90
20833;DHT22;56075;51.264;7.150;2022-09-23T19:39:51;15.30;99.90
20833;DHT22;56075;51.264;7.150;2022-09-23T19:42:22;15.20;99.90
20833;DHT22;56075;51.264;7.150;2022-09-23T19:44:55;17.10;99.90
20833;DHT22;56075;51.264;7.150;2022-09-23T19:47:26;14.90;99.90
20833;DHT22;56075;51.264;7.150;2022-09-23T19:49:57;15.80;99.90
20833;DHT22;56075;51.264;7.150;2022-09-23T19:52:28;15.00;99.90
20833;DHT22;56075;51.264;7.150;2022-09-23T19:55:00;15.00;99.90
20833;DHT22;56075;51.264;7.150;2022-09-23T19:57:33;15.10;99.90
20833;DHT22;56075;51.264;7.150;2022-09-23T20:00:05;15.00;99.90
20833;DHT22;56075;51.264;7.150;2022-09-23T20:02:43;15.00;99.90
20833;DHT22;56075;51.264;7.150;2022-09-23T20:05:14;15.10;99.90
20833;DHT22;56075;51.264;7.150;2022-09-23T20:07:45;15.20;99.90
20833;DHT22;56075;51.264;7.150;2022-09-23T20:10:17;15.00;99.90
20833;DHT22;56075;51.264;7.150;2022-09-23T20:12:48;14.90;99.90
20833;DHT22;56075;51.264;7.150;2022-09-23T20:15:20;15.00;99.90
20833;DHT22;56075;51.264;7.150;2022-09-23T20:17:53;15.40;99.90
20833;DHT22;56075;51.264;7.150;2022-09-23T20:20:24;14.70;99.90
20833;DHT22;56075;51.264;7.150;2022-09-23T20:22:55;14.80;99.90
20833;DHT22;56075;51.264;7.150;2022-09-23T20:25:26;16.50;99.90
20833;DHT22;56075;51.264;7.150;2022-09-23T20:27:57;14.80;99.90
20833;DHT22;56075;51.264;7.150;2022-09-23T20:30:28;16.30;99.90
20833;DHT22;56075;51.264;7.150;2022-09-23T20:33:00;14.60;99.90
20833;DHT22;56075;51.264;7.150;2022-09-23T20:35:33;14.70;99.90
20833;DHT22;56075;51.264;7.150;2022-09-23T20:38:04;15.60;99.90
20833;DHT22;56075;51.264;7.150;2022-09-23T20:40:35;13.00;99.90
20833;DHT22;56075;51.264;7.150;2022-09-23T20:43:08;14.60;99.90
20833;DHT22;56075;51.264;7.150;2022-09-23T20:45:48;15.70;99.90
20833;DHT22;56075;51.264;7.150;2022-09-23T20:48:20;14.40;99.90
20833;DHT22;56075;51.264;7.150;2022-09-23T20:50:52;15.30;99.90
20833;DHT22;56075;51.264;7.150;2022-09-23T20:53:23;14.70;99.90
20833;DHT22;56075;51.264;7.150;2022-09-23T20:55:56;14.70;99.90
20833;DHT22;56075;51.264;7.150;2022-09-23T20:58:29;14.70;99.90
20833;DHT22;56075;51.264;7.150;2022-09-23T21:01:08;15.00;99.90
20833;DHT22;56075;51.264;7.150;2022-09-23T21:03:44;14.50;99.90
20833;DHT22;56075;51.264;7.150;2022-09-23T21:06:17;16.40;99.90
20833;DHT22;56075;51.264;7.150;2022-09-23T21:08:52;15.40;99.90
20833;DHT22;56075;51.264;7.150;2022-09-23T21:11:23;14.40;99.90
20833;DHT22;56075;51.264;7.150;2022-09-23T21:13:55;15.30;99.90
20833;DHT22;56075;51.264;7.150;2022-09-23T21:16:28;14.40;99.90
20833;DHT22;56075;51.264;7.150;2022-09-23T21:18:59;15.40;99.90
20833;DHT22;56075;51.264;7.150;2022-09-23T21:21:33;14.50;99.90
20833;DHT22;56075;51.264;7.150;2022-09-23T21:24:05;15.70;99.90
20833;DHT22;56075;51.264;7.150;2022-09-23T21:26:36;14.60;99.90
20833;DHT22;56075;51.264;7.150;2022-09-23T21:29:07;15.30;99.90
20833;DHT22;56075;51.264;7.150;2022-09-23T21:31:38;14.40;99.90
20833;DHT22;56075;51.264;7.150;2022-09-23T21:34:10;14.50;99.90
20833;DHT22;56075;51.264;7.150;2022-09-23T21:36:42;15.30;99.90
20833;DHT22;56075;51.264;7.150;2022-09-23T21:39:14;14.50;99.90
20833;DHT22;56075;51.264;7.150;2022-09-23T21:41:45;16.40;99.90
20833;DHT22;56075;51.264;7.150;2022-09-23T21:44:16;14.00;99.90
20833;DHT22;56075;51.264;7.150;2022-09-23T21:46:47;14.60;99.90
20833;DHT22;56075;51.264;7.150;2022-09-23T21:49:18;14.50;99.90
20833;DHT22;56075;51.264;7.150;2022-09-23T21:51:50;14.80;99.90
20833;DHT22;56075;51.264;7.150;2022-09-23T21:54:25;14.60;99.90
20833;DHT22;56075;51.264;7.150;2022-09-23T21:56:56;14.40;99.90
20833;DHT22;56075;51.264;7.150;2022-09-23T21:59:27;14.60;99.90
20833;DHT22;56075;51.264;7.150;2022-09-23T22:01:58;14.70;99.90
20833;DHT22;56075;51.264;7.150;2022-09-23T22:04:30;14.40;99.90
20833;DHT22;56075;51.264;7.150;2022-09-23T22:07:02;14.60;99.90
20833;DHT22;56075;51.264;7.150;2022-09-23T22:09:33;14.50;99.90
20833;DHT22;56075;51.264;7.150;2022-09-23T22:12:04;14.40;99.90
20833;DHT22;56075;51.264;7.150;2022-09-23T22:14:38;15.30;99.90
20833;DHT22;56075;51.264;7.150;2022-09-23T22:17:09;14.20;99.90
20833;DHT22;56075;51.264;7.150;2022-09-23T22:19:41;15.60;99.90
20833;DHT22;56075;51.264;7.150;2022-09-23T22:22:14;14.70;99.90
20833;DHT22;56075;51.264;7.150;2022-09-23T22:24:46;16.20;99.90
20833;DHT22;56075;51.264;7.150;2022-09-23T22:27:18;15.30;99.90
20833;DHT22;56075;51.264;7.150;2022-09-23T22:29:50;14.20;99.90
20833;DHT22;56075;51.264;7.150;2022-09-23T22:32:39;14.20;99.90
20833;DHT22;56075;51.264;7.150;2022-09-23T22:35:13;14.30;99.90
20833;DHT22;56075;51.264;7.150;2022-09-23T22:37:47;14.20;99.90
20833;DHT22;56075;51.264;7.150;2022-09-23T22:40:18;14.40;99.90
20833;DHT22;56075;51.264;7.150;2022-09-23T22:42:49;14.30;99.90
20833;DHT22;56075;51.264;7.150;2022-09-23T22:45:20;14.10;99.90
20833;DHT22;56075;51.264;7.150;2022-09-23T22:47:51;14.40;99.90
20833;DHT22;56075;51.264;7.150;2022-09-23T22:50:23;14.40;99.90
20833;DHT22;56075;51.264;7.150;2022-09-23T22:52:54;14.40;99.90
20833;DHT22;56075;51.264;7.150;2022-09-23T22:55:25;14.40;99.90
20833;DHT22;56075;51.264;7.150;2022-09-23T22:57:56;14.20;99.90
20833;DHT22;56075;51.264;7.150;2022-09-23T23:00:27;15.00;99.90
20833;DHT22;56075;51.264;7.150;2022-09-23T23:02:59;14.10;99.90
20833;DHT22;56075;51.264;7.150;2022-09-23T23:05:30;14.20;99.90
20833;DHT22;56075;51.264;7.150;2022-09-23T23:08:02;14.20;99.90
20833;DHT22;56075;51.264;7.150;2022-09-23T23:10:35;14.40;99.90
20833;DHT22;56075;51.264;7.150;2022-09-23T23:13:07;14.00;99.90
20833;DHT22;56075;51.264;7.150;2022-09-23T23:15:38;14.10;99.90
20833;DHT22;56075;51.264;7.150;2022-09-23T23:18:09;15.40;99.90
20833;DHT22;56075;51.264;7.150;2022-09-23T23:20:41;13.90;99.90
20833;DHT22;56075;51.264;7.150;2022-09-23T23:23:12;16.00;99.90
20833;DHT22;56075;51.264;7.150;2022-09-23T23:25:43;15.50;99.90
20833;DHT22;56075;51.264;7.150;2022-09-23T23:28:15;14.00;99.90
20833;DHT22;56075;51.264;7.150;2022-09-23T23:30:46;16.10;99.90
20833;DHT22;56075;51.264;7.150;2022-09-23T23:33:17;14.00;99.90
20833;DHT22;56075;51.264;7.150;2022-09-23T23:35:51;13.90;99.90
20833;DHT22;56075;51.264;7.150;2022-09-23T23:38:22;14.00;99.90
20833;DHT22;56075;51.264;7.150;2022-09-23T23:40:53;13.90;99.90
20833;DHT22;56075;51.264;7.150;2022-09-23T23:43:26;14.30;99.90
20833;DHT22;56075;51.264;7.150;2022-09-23T23:45:57;14.40;99.90
20833;DHT22;56075;51.264;7.150;2022-09-23T23:48:33;14.00;99.90
20833;DHT22;56075;51.264;7.150;2022-09-23T23:51:06;14.10;99.90
20833;DHT22;56075;51.264;7.150;2022-09-23T23:53:39;14.60;99.90
20833;DHT22;56075;51.264;7.150;2022-09-23T23:56:16;15.80;99.90
20833;DHT22;56075;51.264;7.150;2022-09-23T23:58:56;13.80;99.90
